createdAt,value
2023-02-03T00:04:27.076Z,5.3
2023-02-03T00:09:27.129Z,4.5
2023-02-03T00:14:27.079Z,3.5
2023-02-03T00:19:27.122Z,3.5
2023-02-03T00:24:27.107Z,3.3
2023-02-03T00:29:27.157Z,2.7
2023-02-03T00:34:27.064Z,2.6
2023-02-03T00:39:27.151Z,4.5
2023-02-03T00:44:27.068Z,7.0
2023-02-03T00:49:27.155Z,7.0
2023-02-03T00:54:27.079Z,5.1
2023-02-03T00:59:27.158Z,4.2
2023-02-03T01:04:27.073Z,3.6
2023-02-03T01:09:27.146Z,4.2
2023-02-03T01:14:27.088Z,4.4
2023-02-03T01:19:27.147Z,4.4
2023-02-03T01:24:27.081Z,7.0
2023-02-03T01:29:27.164Z,5.0
2023-02-03T01:34:27.087Z,9.4
2023-02-03T01:39:27.162Z,5.6
2023-02-03T01:44:27.095Z,5.6
2023-02-03T01:49:27.172Z,5.6
2023-02-03T01:54:27.089Z,6.0
2023-02-03T01:59:27.165Z,6.0
2023-02-03T02:04:27.079Z,8.5
2023-02-03T02:09:27.180Z,7.2
2023-02-03T02:14:27.099Z,5.5
2023-02-03T02:19:27.168Z,5.5
2023-02-03T02:24:27.105Z,5.3
2023-02-03T02:29:27.177Z,6.5
2023-02-03T02:34:27.088Z,5.9
2023-02-03T02:44:27.094Z,6.7
2023-02-03T02:49:27.173Z,6.7
2023-02-03T02:54:27.100Z,5.6
2023-02-03T02:59:27.178Z,6.2
2023-02-03T03:04:27.146Z,6.7
2023-02-03T03:09:27.213Z,7.5
2023-02-03T03:14:27.100Z,7.5
2023-02-03T03:19:27.207Z,6.2
2023-02-03T03:24:27.119Z,10.5
2023-02-03T03:29:27.183Z,6.9
2023-02-03T03:34:27.121Z,8.4
2023-02-03T03:39:27.189Z,7.6
2023-02-03T03:44:27.119Z,7.6
2023-02-03T03:49:27.209Z,9.5
2023-02-03T03:54:27.130Z,5.4
2023-02-03T03:59:27.162Z,5.9
2023-02-03T04:04:27.127Z,6.1
2023-02-03T04:09:27.180Z,5.1
2023-02-03T04:14:27.120Z,5.1
2023-02-03T04:19:27.216Z,7.6
2023-02-03T04:24:27.134Z,8.1
2023-02-03T04:29:27.165Z,9.5
2023-02-03T04:34:27.130Z,6.4
2023-02-03T04:39:27.211Z,3.1
2023-02-03T04:44:27.113Z,3.1
2023-02-03T04:49:27.214Z,4.3
2023-02-03T04:54:27.129Z,3.7
2023-02-03T04:59:27.237Z,3.3
2023-02-03T05:04:27.153Z,2.5
2023-02-03T05:09:27.208Z,4.2
2023-02-03T05:14:27.134Z,4.2
2023-02-03T05:24:27.149Z,3.6
2023-02-03T05:29:27.210Z,2.7
2023-02-03T05:34:27.153Z,1.8
2023-02-03T05:39:27.239Z,1.6
2023-02-03T05:44:27.140Z,1.6
2023-02-03T05:49:27.213Z,2.7
2023-02-03T05:54:27.144Z,5.0
2023-02-03T05:59:27.243Z,3.6
2023-02-03T06:04:27.210Z,2.4
2023-02-03T06:09:27.255Z,4.7
2023-02-03T06:14:27.140Z,4.7
2023-02-03T06:19:27.204Z,5.0
2023-02-03T06:24:27.153Z,3.5
2023-02-03T06:29:27.245Z,3.8
2023-02-03T06:34:27.179Z,3.7
2023-02-03T06:39:27.253Z,4.8
2023-02-03T06:44:27.165Z,4.8
2023-02-03T06:49:27.239Z,4.1
2023-02-03T06:54:27.163Z,3.9
2023-02-03T07:04:27.167Z,4.6
2023-02-03T07:09:27.254Z,5.0
2023-02-03T07:14:27.193Z,5.0
2023-02-03T07:19:27.260Z,4.0
2023-02-03T07:24:27.205Z,3.2
2023-02-03T07:29:27.266Z,2.6
2023-02-03T07:34:27.172Z,2.6
2023-02-03T07:39:27.283Z,4.9
2023-02-03T07:44:27.174Z,4.9
2023-02-03T07:49:27.257Z,1.5
2023-02-03T07:54:27.168Z,2.6
2023-02-03T07:59:27.241Z,3.4
2023-02-03T08:04:27.269Z,5.0
2023-02-03T08:09:27.275Z,2.7
2023-02-03T08:14:27.171Z,2.7
2023-02-03T08:19:27.237Z,3.3
2023-02-03T08:24:27.194Z,2.9
2023-02-03T08:29:27.246Z,3.1
2023-02-03T08:39:27.273Z,2.2
2023-02-03T08:44:27.180Z,2.2
2023-02-03T08:49:27.273Z,1.9
2023-02-03T08:54:27.189Z,3.4
2023-02-03T08:59:27.233Z,3.1
2023-02-03T09:09:27.288Z,2.1
2023-02-03T09:14:27.229Z,2.1
2023-02-03T09:19:27.260Z,1.1
2023-02-03T09:24:27.203Z,1.4
2023-02-03T09:29:27.259Z,1.4
2023-02-03T09:34:27.216Z,2.6
2023-02-03T09:39:27.310Z,2.1
2023-02-03T09:44:27.231Z,2.1
2023-02-03T09:54:27.207Z,1.9
2023-02-03T09:59:27.287Z,2.2
2023-02-03T10:04:27.254Z,1.7
2023-02-03T10:09:27.333Z,3.5
2023-02-03T10:14:27.200Z,3.5
2023-02-03T10:19:27.316Z,3.4
2023-02-03T10:24:27.277Z,2.6
2023-02-03T10:29:27.281Z,1.3
2023-02-03T10:34:27.244Z,2.5
2023-02-03T10:39:27.253Z,5.3
2023-02-03T10:44:27.215Z,5.3
2023-02-03T10:49:27.249Z,2.4
2023-02-03T10:59:27.248Z,3.6
2023-02-03T11:04:27.254Z,1.9
2023-02-03T11:09:27.249Z,2.2
2023-02-03T11:14:27.214Z,2.2
2023-02-03T11:19:27.247Z,4.1
2023-02-03T11:24:27.193Z,3.2
2023-02-03T11:29:27.278Z,3.4
2023-02-03T11:34:27.187Z,3.9
2023-02-03T11:39:27.285Z,3.2
2023-02-03T11:49:27.283Z,4.4
2023-02-03T11:54:27.200Z,2.4
2023-02-03T11:59:27.333Z,2.4
2023-02-03T12:04:27.287Z,2.9
2023-02-03T12:09:27.331Z,1.0
2023-02-03T12:14:27.187Z,1.0
2023-02-03T12:19:27.303Z,2.5
2023-02-03T12:24:27.214Z,1.3
2023-02-03T12:29:27.257Z,1.1
2023-02-03T12:34:27.206Z,3.6
2023-02-03T12:39:27.309Z,1.5
2023-02-03T12:44:27.201Z,1.5
2023-02-03T12:49:27.264Z,1.7
2023-02-03T12:54:27.222Z,2.8
2023-02-03T12:59:27.259Z,1.3
2023-02-03T13:04:27.206Z,3.6
2023-02-03T13:09:27.361Z,3.1
2023-02-03T13:19:27.310Z,2.4
2023-02-03T13:24:27.212Z,3.1
2023-02-03T13:29:27.297Z,2.9
2023-02-03T13:34:27.202Z,2.1
2023-02-03T13:39:27.303Z,2.6
2023-02-03T13:44:27.229Z,2.6
2023-02-03T13:49:27.264Z,2.1
2023-02-03T13:54:27.217Z,2.6
2023-02-03T13:59:27.261Z,3.5
2023-02-03T14:04:27.271Z,2.8
2023-02-03T14:09:27.316Z,1.7
2023-02-03T14:14:27.216Z,1.7
2023-02-03T14:19:27.307Z,1.3
2023-02-03T14:24:27.212Z,4.3
2023-02-03T14:29:27.322Z,2.0
2023-02-03T14:39:27.311Z,3.1
2023-02-03T14:44:27.226Z,3.1
2023-02-03T14:49:27.286Z,2.0
2023-02-03T14:54:27.289Z,1.5
2023-02-03T14:59:27.273Z,4.7
2023-02-03T15:04:27.317Z,1.5
2023-02-03T15:09:27.311Z,2.6
2023-02-03T15:14:27.223Z,2.6
2023-02-03T15:19:27.275Z,1.0
2023-02-03T15:29:27.278Z,5.7
2023-02-03T15:34:27.220Z,5.1
2023-02-03T15:39:27.382Z,2.7
2023-02-03T15:44:27.234Z,2.7
2023-02-03T15:49:27.285Z,4.1
2023-02-03T15:54:27.263Z,3.2
2023-02-03T15:59:27.274Z,2.5
2023-02-03T16:04:27.235Z,2.2
2023-02-03T16:09:27.277Z,2.5
2023-02-03T16:14:27.180Z,2.5
2023-02-03T16:19:27.317Z,1.4
2023-02-03T16:24:27.210Z,2.6
2023-02-03T16:29:27.312Z,2.9
2023-02-03T16:34:27.225Z,3.4
2023-02-03T16:39:27.275Z,2.6
2023-02-03T16:49:27.272Z,2.3
2023-02-03T16:54:27.236Z,3.5
2023-02-03T16:59:27.277Z,6.6
2023-02-03T17:04:27.241Z,5.5
2023-02-03T17:09:27.281Z,4.3
2023-02-03T17:14:27.238Z,4.3
2023-02-03T17:19:27.286Z,6.4
2023-02-03T17:24:27.250Z,6.9
2023-02-03T17:29:27.280Z,9.7
2023-02-03T17:34:27.247Z,6.8
2023-02-03T17:54:27.277Z,7.1
2023-02-03T17:59:27.263Z,8.5
2023-02-03T18:04:27.193Z,9.6
2023-02-03T18:09:27.254Z,6.5
2023-02-03T18:14:27.238Z,6.5
2023-02-03T18:19:27.300Z,5.4
2023-02-03T18:29:27.243Z,8.6
2023-02-03T18:34:27.190Z,12.6
2023-02-03T18:39:27.245Z,7.2
2023-02-03T18:54:27.192Z,7.8
2023-02-03T18:59:27.265Z,12.4
2023-02-03T19:04:27.206Z,11.7
2023-02-03T19:09:27.258Z,5.3
2023-02-03T19:14:27.200Z,5.3
2023-02-03T19:19:27.267Z,11.7
2023-02-03T19:24:27.237Z,11.5
2023-02-03T19:29:27.274Z,9.6
2023-02-03T19:39:27.269Z,11.0
2023-02-03T19:49:27.309Z,8.9
2023-02-03T19:54:27.228Z,8.6
2023-02-03T19:59:27.275Z,10.8
2023-02-03T20:04:27.300Z,11.0
2023-02-03T20:14:27.232Z,9.7
2023-02-03T20:24:27.263Z,10.5
2023-02-03T20:29:27.282Z,11.5
2023-02-03T20:34:27.226Z,11.5
2023-02-03T20:39:27.277Z,12.9
2023-02-03T20:44:27.222Z,12.9
2023-02-03T20:49:27.278Z,7.4
2023-02-03T20:54:27.233Z,10.0
2023-02-03T20:59:27.280Z,11.2
2023-02-03T21:04:27.266Z,7.5
2023-02-03T21:14:27.256Z,10.7
2023-02-03T21:19:27.291Z,10.2
2023-02-03T21:29:27.299Z,10.3
2023-02-03T21:34:27.238Z,11.6
2023-02-03T21:39:27.280Z,12.7
2023-02-03T21:44:27.228Z,12.7
2023-02-03T21:49:27.282Z,10.2
2023-02-03T21:54:27.257Z,10.9
2023-02-03T21:59:27.294Z,10.1
2023-02-03T22:04:27.235Z,8.0
2023-02-03T22:09:27.286Z,9.3
2023-02-03T22:14:27.235Z,9.3
2023-02-03T22:19:27.279Z,10.1
2023-02-03T22:24:27.244Z,10.6
2023-02-03T22:29:27.339Z,9.0
2023-02-03T22:39:27.341Z,11.8
2023-02-03T22:44:27.236Z,11.8
2023-02-03T22:49:27.464Z,9.8
2023-02-03T22:59:27.426Z,10.9
2023-02-03T23:04:27.376Z,12.0
2023-02-03T23:09:27.448Z,9.6
2023-02-03T23:14:27.357Z,9.6
2023-02-03T23:19:27.460Z,10.7
2023-02-03T23:29:27.424Z,10.3
2023-02-03T23:34:27.348Z,12.0
2023-02-03T23:44:27.368Z,10.9
2023-02-03T23:49:27.471Z,8.9
